CheckWX is a tool to help pilots better visualize weather data.  It is not intended as a substitute for an official pre-flight weather briefing.

18:31:24 UTC

KSNC METAR
Chester Airport
Chester, Connecticut, USA
Current

16 mins ago

KSNC 171815Z AUTO 22010KT 10SM CLR 03/M10 A3009 RMK AO2
Observed
Feb-17 @ 18:15 UTC
Wind
  • 220° at 10 KTS
Visibility
10 SM
Flight Rules
VFR
Cloud Levels
  • Clear skies
Temperature
C / 37°F
Dewpoint
-10°C / 14°F
Humidity
38%
Altimeter
30.09" Hg
Pressure
1018.92 hPa
Previous

36 mins ago

KSNC 171755Z AUTO 25007KT 10SM CLR 03/M12 A3009 RMK AO2
Observed
Feb-17 @ 17:55 UTC
Wind
  • 250° at 7 KTS
Visibility
10 SM
Flight Rules
VFR
Cloud Levels
  • Clear skies
Temperature
C / 37°F
Dewpoint
-12°C / 10°F
Humidity
33%
Altimeter
30.09" Hg
Pressure
1018.92 hPa
Previous

56 mins ago

KSNC 171735Z AUTO VRB04KT 10SM 02/M12 A3003 RMK AO2
Observed
Feb-17 @ 17:35 UTC
Wind
  • Variable at 4 KTS
Visibility
10 SM
Temperature
C / 36°F
Dewpoint
-12°C / 10°F
Humidity
35%
Altimeter
30.03" Hg
Pressure
1016.92 hPa